Capitola, CA

6:48 PM PDT on September 21, 2014 (GMT -0700)
Capitola Jewel Box | Change Station
CLOSE
Current Station
Personal Weather Station
Location: Capitola, CA
Elevation: 102 ft
Nearby Weather Stations

Elev 102 ft 36.97 °N, 121.96 °W | Updated 6 minutes ago

Overcast
Overcast
69.2 °F
Feels Like 69.2 °F
N
2.0
Wind Variable Wind from ESE
Gusts 8.0 mph

Today
High -- | Low -- °F
--% Chance of Precip.
Yesterday
High -- | Low -- °F
Precip. -- in
6:54 AM 7:06 PM
Waning Crescent, 4% visible
Pressure 30.01 in
Visibility 10.0 miles
Clouds Overcast 1700 ft
Dew Point 62 °F
Humidity 77%
Rainfall 0.00 in
Snow Depth 0 in , 0 in , 0 in
UV 0 out of 12
Pollen 3.80 out of 12
Air Quality Not available.
Flu Activity Not available.
METAR KWVI 220053Z AUTO 22007KT 10SM OVC017 21/15 A3001 RMK AO2 SLP160 T02060150

More Conditions Fewer Conditions

Pressure 30.01 in
Visibility 10.0 miles
Clouds Overcast 1700 ft
Dew Point 62 °F
Humidity 77%
Rainfall 0.00 in
Snow Depth 0 in , 0 in , 0 in
UV 0 out of 12
Pollen 3.80 out of 12
Air Quality Not available.
Flu Activity Not available.
METAR KWVI 220053Z AUTO 22007KT 10SM OVC017 21/15 A3001 RMK AO2 SLP160 T02060150

More Conditions Fewer Conditions

10-Day Weather Forecast

Almanac

Astronomy

Sep. 21, 2014 Rise Set
Actual Time 6:54 AM PDT 7:06 PM PDT
Civil Twilight 6:29 AM PDT 7:31 PM PDT
Nautical Twilight 5:58 AM PDT 8:02 PM PDT
Astronomical Twilight 5:27 AM PDT 8:32 PM PDT
Moon 4:36 AM PDT (9/21) 5:43 PM PDT (9/21)
Length of Visible Light 13h 02m
Length of Day
12h 11m
Tomorrow will be 2m 20s shorter.
Waning Crescent, 4% of the Moon is Illuminated
Today
Waning Crescent
Sep 24
New
Oct 1
First Quarter
Oct 8
Full
Oct 15
Last Quarter

Today's Extremes

State Highs State Lows

Community

WunderPhotos

Upload Photos

1,755,347 photos uploaded!

WunderBlogs® & News

Nearby

Snow Depth

Station Depth Elevation
Burnside Lake 0 in 8139 ft
Summit Meadow 0 in 9122 ft
Spratt Creek 0 in 6200 ft
Rubicon #2 0 in 7500 ft
Monitor Pass 0 in 8350 ft

Earthquake Activity

City Distance Mag. Time & Date
Sonoma, California 96 miles 2.7 1:17 PM PDT
2014-09-21
Cloverdale, California 138 miles 2.5 9:15 PM PDT
2014-09-20
Livermore, California 50 miles 2.6 3:37 AM PDT
2014-09-19
The Geysers, California 129 miles 2.5 11:29 PM PDT
2014-09-17
Minimum magnitude displayed is 2.5.

Coastal Water Temperatures

Place Temperature
Monterey, CA 63.0 °F
Redwood City, CA 73.0 °F

Nearby Weather Stations